Snow Hill, North Carolina
Current Conditions -  °F | °C
As of 5:35 AM on Wednesday 26 Nov 2014 (Local Time) from KISO Reporting Station
Heavy Rain Heavy Rain  
Wind Chill: 56°   Ceiling: 200
Heat Index: 56°   Visibility: 3mi
Dew Point: 56°   Wind: 8mph
Humidity: 99%   Direction: 60°ENE
Pressure: 29.81"   Gusts: NA
Location:  35.45°N, 77.68°W
Report Text: KISO 261035Z AUTO 06007KT 3SM +RA OVC002 14/14 A2981 RMK AO2 P0006 T01360135
Loading
Personal Weather Stations






























Interactive Weather Map New forecast layout! Learn more

10-Day Weather Forecast

Advertisements
Track Severe Weather on mobile